»·PEaware :: QXE2819 KPDX-KSEA

QXE2819 :: KPDX-KSEA

FLIGHT INFORMATION

Flight Status: Arrived
Operator:
Horizon Air
More flights by this operator :: More flights under this callsign
Pilot: Adlai G. (28854)
Aircraft: DEHAVILLAND DASH 8 400
(DH8D)
More flights by this aircraft type
Origin: KPDX Portland Intl
United States
Destination: KSEA Seattle-Tacoma Intl
United States
More flights between these airports :: More routes between these airports
Route: +PTLD1 COUGA KRIEG HAWKZ7
File this flight plan on PilotEdge
Remarks:
Altitude:
(Current/Filed)
16,000ft
Speed:
(Current/Filed)
363kts
Departed: 09-Jun-20 09:33 AM
Arrived: 09-Jun-20 10:12 AM
Distance/Time
Traveled:
112nm/0:39
Distance/Time
To Go:
Arrived

Flight Plot

Page will automatically refresh every two minutes.

Flight plan parsing failed; only flown route is shown


Map Options




Map Legend


Flown Route
Filed Route
Departure Airport
Arrival Airport
Navaid (VOR, NDB)
Fix

Horizontal Profiles

Position Reports

Time Latitude Longitude Heading Altitude Ground
Speed
09-Jun-20 08:59 45.589981 -122.599751 68 37ft 0kts
09-Jun-20 09:00 45.589981 -122.599751 68 37ft 0kts
09-Jun-20 09:01 45.589981 -122.599751 68 37ft 0kts
09-Jun-20 09:02 45.589981 -122.599751 68 37ft 0kts
09-Jun-20 09:03 45.589981 -122.599751 68 37ft 0kts
09-Jun-20 09:04 45.589981 -122.599751 68 37ft 0kts
09-Jun-20 09:05 45.589981 -122.599751 68 37ft 0kts
09-Jun-20 09:06 45.589981 -122.599751 68 37ft 0kts
09-Jun-20 09:07 45.589981 -122.599751 68 37ft 0kts
09-Jun-20 09:08 45.589981 -122.599751 68 37ft 0kts
09-Jun-20 09:09 45.589981 -122.599751 68 37ft 0kts
09-Jun-20 09:10 45.589981 -122.599751 68 37ft 0kts
09-Jun-20 09:11 45.589981 -122.599751 68 37ft 0kts
09-Jun-20 09:12 45.589981 -122.599751 68 37ft 0kts
09-Jun-20 09:13 45.589981 -122.599751 68 37ft 0kts
09-Jun-20 09:14 45.589981 -122.599751 68 37ft 0kts
09-Jun-20 09:15 45.589981 -122.599751 68 37ft 0kts
09-Jun-20 09:16 45.589981 -122.599751 68 37ft 0kts
09-Jun-20 09:17 45.589981 -122.599751 68 37ft 0kts
09-Jun-20 09:18 45.589981 -122.599751 68 37ft 0kts
09-Jun-20 09:19 45.589981 -122.599751 68 37ft 0kts
09-Jun-20 09:20 45.589981 -122.599751 68 37ft 0kts
09-Jun-20 09:21 45.589981 -122.599751 68 37ft 0kts
09-Jun-20 09:23 45.589772 -122.600272 45 37ft 2kts
09-Jun-20 09:24 45.589190 -122.600316 299 37ft 2kts
09-Jun-20 09:25 45.589167 -122.600257 299 37ft 0kts
09-Jun-20 09:26 45.589167 -122.600257 299 37ft 0kts
09-Jun-20 09:27 45.589167 -122.600257 299 37ft 0kts
09-Jun-20 09:28 45.589167 -122.600257 299 37ft 0kts
09-Jun-20 09:29 45.590030 -122.601777 16 37ft 9kts
09-Jun-20 09:30 45.591960 -122.598790 51 37ft 12kts
09-Jun-20 09:31 45.593516 -122.596587 42 37ft 5kts
09-Jun-20 09:32 45.594202 -122.595809 33 37ft 2kts
09-Jun-20 09:33 45.590788 -122.585328 120 40ft 126kts
09-Jun-20 09:34 45.589047 -122.526309 79 2541ft 179kts
09-Jun-20 09:35 45.603730 -122.449178 75 5199ft 228kts
09-Jun-20 09:36 45.626006 -122.361082 75 7923ft 238kts
09-Jun-20 09:37 45.649019 -122.268676 74 10130ft 254kts
09-Jun-20 09:38 45.690916 -122.191385 359 11699ft 257kts
09-Jun-20 09:38 45.740432 -122.225877 311 13053ft 227kts
09-Jun-20 09:40 45.798268 -122.299499 310 14502ft 241kts
09-Jun-20 09:41 45.848623 -122.364254 311 15790ft 246kts
09-Jun-20 09:41 45.893552 -122.422308 311 15984ft 278kts
09-Jun-20 09:42 45.954160 -122.500501 312 15986ft 304kts
09-Jun-20 09:44 46.029041 -122.596569 312 15986ft 314kts
09-Jun-20 09:44 46.084633 -122.664901 322 15992ft 321kts
09-Jun-20 09:45 46.174850 -122.694408 346 15970ft 340kts
09-Jun-20 09:46 46.268519 -122.711965 345 15957ft 341kts
09-Jun-20 09:47 46.363348 -122.725203 353 15953ft 346kts
09-Jun-20 09:48 46.459991 -122.727090 352 15927ft 348kts
09-Jun-20 09:49 46.556454 -122.730591 352 15919ft 347kts
09-Jun-20 09:50 46.652917 -122.734130 352 15910ft 345kts
09-Jun-20 09:51 46.748718 -122.737630 352 15911ft 346kts
09-Jun-20 09:52 46.836911 -122.679825 37 15522ft 365kts
09-Jun-20 09:53 46.914862 -122.586823 34 14388ft 347kts
09-Jun-20 09:54 46.996789 -122.535255 9 12803ft 314kts
09-Jun-20 09:55 47.079518 -122.501390 9 11136ft 307kts
09-Jun-20 09:56 47.162935 -122.484665 1 10353ft 303kts
09-Jun-20 09:57 47.246877 -122.471433 1 9316ft 300kts
09-Jun-20 09:58 47.325527 -122.459055 1 7990ft 267kts
09-Jun-20 09:59 47.400398 -122.454377 355 7156ft 268kts
09-Jun-20 10:00 47.473840 -122.455632 357 6218ft 265kts
09-Jun-20 10:01 47.545043 -122.455643 0 5445ft 250kts
09-Jun-20 10:02 47.612301 -122.456056 0 4254ft 239kts
09-Jun-20 10:03 47.675061 -122.445200 47 3074ft 220kts
09-Jun-20 10:04 47.687369 -122.363566 86 2942ft 197kts
09-Jun-20 10:05 47.677478 -122.289011 152 2984ft 193kts
09-Jun-20 10:06 47.623966 -122.299520 186 2188ft 190kts
09-Jun-20 10:07 47.571399 -122.306689 180 2097ft 184kts
09-Jun-20 10:08 47.523334 -122.307473 178 1644ft 146kts
09-Jun-20 10:09 47.488490 -122.307645 177 953ft 122kts
09-Jun-20 10:10 47.455935 -122.307795 180 441ft 87kts
09-Jun-20 10:11 47.450921 -122.306242 180 440ft 13kts
09-Jun-20 10:12 47.446653 -122.306296 180 440ft 14kts
09-Jun-20 10:13 47.443822 -122.305677 180 440ft 9kts
09-Jun-20 10:14 47.443828 -122.303673 0 440ft 5kts
09-Jun-20 10:15 47.444028 -122.303673 0 440ft 0kts
09-Jun-20 10:16 47.444028 -122.303673 0 440ft 0kts
09-Jun-20 10:17 47.444028 -122.303673 0 440ft 0kts
09-Jun-20 10:18 47.444028 -122.303673 0 440ft 0kts
09-Jun-20 10:19 47.444028 -122.303673 0 440ft 0kts
09-Jun-20 10:20 47.444028 -122.303673 0 440ft 0kts
09-Jun-20 10:21 47.444028 -122.303673 0 440ft 0kts
09-Jun-20 10:22 47.444028 -122.303673 0 440ft 0kts
09-Jun-20 10:23 47.444028 -122.303673 0 440ft 0kts
09-Jun-20 10:24 47.444028 -122.303673 0 440ft 0kts

Navigation Log

Ident Type
Flight plan parsing failed, navigation log unavailable